createdAt,value
2019-03-24T00:02:16.728Z,8.08
2019-03-24T00:05:22.427Z,8.05
2019-03-24T00:08:27.768Z,7.95
2019-03-24T00:11:33.049Z,8.20
2019-03-24T00:14:38.295Z,8.31
2019-03-24T00:17:43.884Z,8.37
2019-03-24T00:20:49.470Z,8.29
2019-03-24T00:23:54.340Z,8.33
2019-03-24T00:26:59.312Z,8.38
2019-03-24T00:30:05.935Z,8.05
2019-03-24T00:33:11.011Z,8.25
2019-03-24T00:36:15.955Z,8.10
2019-03-24T00:39:21.437Z,7.97
2019-03-24T00:42:26.424Z,7.87
2019-03-24T00:45:36.859Z,8.02
2019-03-24T00:48:38.325Z,8.02
2019-03-24T00:51:43.600Z,8.00
2019-03-24T00:54:48.432Z,8.14
2019-03-24T00:57:53.616Z,8.02
2019-03-24T01:00:58.800Z,7.91
2019-03-24T01:04:04.316Z,8.05
2019-03-24T01:07:09.662Z,8.15
2019-03-24T01:10:14.043Z,7.98
2019-03-24T01:13:19.442Z,7.84
2019-03-24T01:16:25.003Z,7.82
2019-03-24T01:19:30.288Z,7.84
2019-03-24T01:22:35.275Z,7.81
2019-03-24T01:25:40.312Z,7.73
2019-03-24T01:28:45.359Z,7.92
2019-03-24T01:31:50.471Z,7.78
2019-03-24T01:34:55.379Z,7.84
2019-03-24T01:37:59.640Z,7.93
2019-03-24T01:41:04.649Z,7.98
2019-03-24T01:44:09.920Z,8.07
2019-03-24T01:47:15.418Z,7.93
2019-03-24T01:50:20.988Z,8.10
2019-03-24T01:53:25.732Z,7.91
2019-03-24T01:56:29.697Z,7.96
2019-03-24T01:59:35.031Z,7.96
2019-03-24T02:02:39.786Z,7.83
2019-03-24T02:05:44.485Z,7.68
2019-03-24T02:08:49.728Z,7.80
2019-03-24T02:11:53.594Z,7.81
2019-03-24T02:14:58.894Z,7.99
2019-03-24T02:18:03.827Z,7.82
2019-03-24T02:21:09.641Z,7.82
2019-03-24T02:24:14.965Z,7.74
2019-03-24T02:27:20.139Z,7.65
2019-03-24T02:30:25.478Z,7.75
2019-03-24T02:33:30.282Z,7.75
2019-03-24T02:36:35.664Z,7.73
2019-03-24T02:39:40.504Z,7.72
2019-03-24T02:42:44.708Z,7.80
2019-03-24T02:45:50.337Z,7.63
2019-03-24T02:48:55.908Z,7.73
2019-03-24T02:52:01.004Z,7.83
2019-03-24T02:55:08.634Z,7.85
2019-03-24T02:58:13.796Z,7.69
2019-03-24T03:01:19.323Z,7.67
2019-03-24T03:04:24.692Z,7.54
2019-03-24T03:07:29.311Z,7.67
2019-03-24T03:10:35.049Z,7.61
2019-03-24T03:13:40.283Z,7.65
2019-03-24T03:16:45.322Z,7.70
2019-03-24T03:19:53.382Z,7.96
2019-03-24T03:22:57.444Z,7.81
2019-03-24T03:26:02.321Z,7.99
2019-03-24T03:29:07.352Z,7.77
2019-03-24T03:32:12.700Z,7.58
2019-03-24T03:35:16.891Z,7.52
2019-03-24T03:38:22.312Z,7.20
2019-03-24T03:41:28.158Z,7.20
2019-03-24T03:44:33.264Z,7.12
2019-03-24T03:47:38.413Z,7.06
2019-03-24T03:50:43.424Z,7.11
2019-03-24T03:53:48.096Z,7.00
2019-03-24T03:56:53.255Z,7.05
2019-03-24T03:59:59.151Z,6.96
2019-03-24T04:03:05.193Z,6.97
2019-03-24T04:06:10.560Z,7.06
2019-03-24T04:09:15.454Z,7.20
2019-03-24T04:12:20.463Z,7.12
2019-03-24T04:15:25.442Z,7.10
2019-03-24T04:18:30.292Z,7.09
2019-03-24T04:21:36.065Z,7.03
2019-03-24T04:24:41.045Z,6.95
2019-03-24T04:27:46.369Z,6.90
2019-03-24T04:30:51.701Z,6.88
2019-03-24T04:33:57.305Z,6.79
2019-03-24T04:37:02.615Z,6.79
2019-03-24T04:40:09.072Z,6.87
2019-03-24T04:43:13.758Z,6.93
2019-03-24T04:46:17.626Z,6.99
2019-03-24T04:49:23.394Z,6.94
2019-03-24T04:52:28.486Z,6.88
2019-03-24T04:55:33.718Z,7.11
2019-03-24T04:58:38.344Z,7.00
2019-03-24T05:01:43.386Z,6.98
2019-03-24T05:04:49.490Z,6.94
2019-03-24T05:07:54.701Z,6.87
2019-03-24T05:10:58.658Z,6.96
2019-03-24T05:14:03.340Z,6.77
2019-03-24T05:17:08.433Z,7.09
2019-03-24T05:20:13.413Z,6.95
2019-03-24T05:23:18.387Z,6.82
2019-03-24T05:26:23.379Z,6.90
2019-03-24T05:29:28.576Z,6.90
2019-03-24T05:32:33.443Z,6.93
2019-03-24T05:35:38.280Z,6.88
2019-03-24T05:38:43.285Z,6.99
2019-03-24T05:41:47.962Z,7.06
2019-03-24T05:44:52.976Z,6.86
2019-03-24T05:47:58.550Z,6.66
2019-03-24T05:51:03.670Z,6.59
2019-03-24T05:54:08.341Z,6.64
2019-03-24T05:57:13.307Z,6.56
2019-03-24T06:00:19.097Z,6.58
2019-03-24T06:03:23.739Z,6.45
2019-03-24T06:06:28.331Z,6.30
2019-03-24T06:09:33.518Z,6.55
2019-03-24T06:12:38.665Z,6.37
2019-03-24T06:15:43.704Z,6.30
2019-03-24T06:18:49.478Z,6.34
2019-03-24T06:21:54.690Z,6.32
2019-03-24T06:25:01.656Z,6.28
2019-03-24T06:28:06.869Z,6.30
2019-03-24T06:31:13.059Z,6.40
2019-03-24T06:34:18.981Z,6.40
2019-03-24T06:37:24.599Z,6.42
2019-03-24T06:40:30.027Z,6.38
2019-03-24T06:43:34.919Z,6.25
2019-03-24T06:46:40.722Z,6.29
2019-03-24T06:49:46.322Z,6.29
2019-03-24T06:52:51.306Z,6.25
2019-03-24T06:55:56.304Z,6.29
2019-03-24T06:59:02.377Z,6.41
2019-03-24T07:02:07.266Z,6.43
2019-03-24T07:05:12.280Z,6.44
2019-03-24T07:08:17.349Z,6.49
2019-03-24T07:11:22.935Z,6.57
2019-03-24T07:14:28.313Z,6.68
2019-03-24T07:17:33.999Z,6.82
2019-03-24T07:20:38.883Z,6.62
2019-03-24T07:23:43.947Z,6.58
2019-03-24T07:26:49.265Z,6.58
2019-03-24T07:29:56.057Z,6.66
2019-03-24T07:33:02.746Z,6.78
2019-03-24T07:36:07.324Z,6.89
2019-03-24T07:39:12.257Z,6.87
2019-03-24T07:42:17.099Z,6.94
2019-03-24T07:45:23.989Z,6.84
2019-03-24T07:48:30.386Z,6.85
2019-03-24T07:51:35.561Z,7.00
2019-03-24T07:54:41.256Z,7.06
2019-03-24T07:57:46.623Z,7.29
2019-03-24T08:00:52.051Z,7.51
2019-03-24T08:04:02.085Z,7.05
2019-03-24T08:07:06.892Z,7.53
2019-03-24T08:10:12.044Z,8.05
2019-03-24T08:13:17.247Z,8.28
2019-03-24T08:16:22.728Z,8.45
2019-03-24T08:19:27.977Z,8.62
2019-03-24T08:22:35.268Z,8.21
2019-03-24T08:25:42.294Z,7.82
2019-03-24T08:28:47.304Z,7.79
2019-03-24T08:31:54.426Z,7.84
2019-03-24T08:34:59.739Z,8.45
2019-03-24T08:38:06.319Z,8.14
2019-03-24T08:41:11.292Z,8.42
2019-03-24T08:44:16.548Z,8.67
2019-03-24T08:47:21.348Z,9.06
2019-03-24T08:50:27.258Z,8.95
2019-03-24T08:53:32.270Z,8.83
2019-03-24T08:56:37.385Z,8.80
2019-03-24T08:59:42.514Z,8.87
2019-03-24T09:02:47.977Z,9.07
2019-03-24T09:05:53.003Z,8.49
2019-03-24T09:08:58.274Z,8.26
2019-03-24T09:12:03.653Z,8.74
2019-03-24T09:15:10.316Z,9.00
2019-03-24T09:18:15.943Z,8.84
2019-03-24T09:21:21.463Z,8.05
2019-03-24T09:24:28.186Z,8.05
2019-03-24T09:27:34.512Z,8.03
2019-03-24T09:30:40.596Z,7.94
2019-03-24T09:33:45.981Z,7.75
2019-03-24T09:36:51.348Z,7.59
2019-03-24T09:39:57.224Z,7.51
2019-03-24T09:43:02.343Z,7.51
2019-03-24T09:46:07.319Z,7.93
2019-03-24T09:49:14.014Z,7.55
2019-03-24T09:52:18.929Z,7.54
2019-03-24T09:55:23.665Z,7.91
2019-03-24T09:58:28.561Z,7.87
2019-03-24T10:01:34.524Z,7.56
2019-03-24T10:04:40.535Z,7.56
2019-03-24T10:07:47.387Z,8.26
2019-03-24T10:10:52.464Z,8.26
2019-03-24T10:13:57.624Z,7.88
2019-03-24T10:17:02.368Z,7.52
2019-03-24T10:20:07.746Z,7.67
2019-03-24T10:23:13.632Z,8.33
2019-03-24T10:26:18.995Z,7.86
2019-03-24T10:29:24.649Z,8.01
2019-03-24T10:32:29.709Z,7.88
2019-03-24T10:35:33.905Z,7.67
2019-03-24T10:38:39.326Z,7.56
2019-03-24T10:41:44.472Z,7.56
2019-03-24T10:44:49.331Z,8.05
2019-03-24T10:47:54.349Z,7.83
2019-03-24T10:50:59.875Z,8.22
2019-03-24T10:54:04.754Z,8.88
2019-03-24T10:57:08.878Z,8.88
2019-03-24T11:00:14.850Z,8.67
2019-03-24T11:03:19.453Z,8.36
2019-03-24T11:06:24.332Z,8.36
2019-03-24T11:09:29.277Z,8.09
2019-03-24T11:12:37.299Z,8.06
2019-03-24T11:15:42.734Z,9.01
2019-03-24T11:18:47.296Z,9.16
2019-03-24T11:21:52.339Z,8.93
2019-03-24T11:24:57.686Z,9.57
2019-03-24T11:28:01.831Z,9.48
2019-03-24T11:31:08.541Z,8.38
2019-03-24T11:34:13.700Z,9.31
2019-03-24T11:37:17.922Z,9.20
2019-03-24T11:40:22.969Z,9.68
2019-03-24T11:43:28.399Z,9.68
2019-03-24T11:46:33.577Z,9.95
2019-03-24T11:49:45.947Z,10.49
2019-03-24T11:52:46.031Z,10.02
2019-03-24T11:55:52.032Z,11.21
2019-03-24T11:58:57.076Z,11.38
2019-03-24T12:02:03.283Z,10.74
2019-03-24T12:05:08.754Z,10.33
2019-03-24T12:08:12.922Z,10.79
2019-03-24T12:11:17.812Z,10.88
2019-03-24T12:14:22.529Z,10.91
2019-03-24T12:17:27.428Z,10.91
2019-03-24T12:20:32.273Z,11.02
2019-03-24T12:23:37.298Z,9.75
2019-03-24T12:26:42.270Z,9.70
2019-03-24T12:29:47.112Z,10.35
2019-03-24T12:32:53.846Z,10.31
2019-03-24T12:35:58.945Z,9.65
2019-03-24T12:39:05.297Z,9.65
2019-03-24T12:42:10.471Z,9.36
2019-03-24T12:45:15.985Z,9.14
2019-03-24T12:48:22.208Z,9.07
2019-03-24T12:51:28.321Z,9.03
2019-03-24T12:54:34.253Z,8.94
2019-03-24T12:57:39.796Z,9.16
2019-03-24T13:00:44.853Z,8.53
2019-03-24T13:03:49.712Z,8.49
2019-03-24T13:06:54.317Z,8.49
2019-03-24T13:09:59.259Z,8.56
2019-03-24T13:13:05.473Z,8.18
2019-03-24T13:16:13.616Z,8.16
2019-03-24T13:19:19.480Z,8.18
2019-03-24T13:22:24.299Z,8.09
2019-03-24T13:25:30.259Z,7.89
2019-03-24T13:28:36.401Z,7.97
2019-03-24T13:31:42.148Z,7.78
2019-03-24T13:34:48.930Z,7.74
2019-03-24T13:37:54.436Z,7.42
2019-03-24T13:40:59.934Z,7.42
2019-03-24T13:44:05.444Z,7.71
2019-03-24T13:47:12.089Z,7.78
2019-03-24T13:50:17.343Z,7.81
2019-03-24T13:53:22.584Z,7.83
2019-03-24T13:56:30.261Z,7.80
2019-03-24T13:59:37.339Z,7.80
2019-03-24T14:02:42.395Z,7.67
2019-03-24T14:05:51.585Z,7.73
2019-03-24T14:09:00.952Z,7.79
2019-03-24T14:12:06.733Z,7.74
2019-03-24T14:15:12.467Z,7.74
2019-03-24T14:18:17.563Z,7.83
2019-03-24T14:21:24.563Z,7.84
2019-03-24T14:24:30.440Z,7.66
2019-03-24T14:27:36.123Z,7.83
2019-03-24T14:30:46.395Z,7.91
2019-03-24T14:33:51.452Z,7.98
2019-03-24T14:36:56.640Z,8.07
2019-03-24T14:40:05.816Z,7.87
2019-03-24T14:43:12.393Z,8.24
2019-03-24T14:46:19.427Z,8.24
2019-03-24T14:49:26.283Z,8.18
2019-03-24T14:52:32.301Z,7.79
2019-03-24T14:55:38.591Z,7.72
2019-03-24T14:58:43.655Z,7.98
2019-03-24T15:01:48.802Z,8.43
2019-03-24T15:04:55.264Z,8.17
2019-03-24T15:08:00.615Z,8.06
2019-03-24T15:11:06.195Z,8.03
2019-03-24T15:14:11.526Z,8.51
2019-03-24T15:17:16.785Z,8.16
2019-03-24T15:20:23.458Z,8.82
2019-03-24T15:23:28.954Z,8.82
2019-03-24T15:26:34.422Z,8.89
2019-03-24T15:29:40.377Z,8.88
2019-03-24T15:32:45.409Z,8.26
2019-03-24T15:35:50.409Z,8.91
2019-03-24T15:38:56.931Z,9.51
2019-03-24T15:42:03.505Z,9.56
2019-03-24T15:45:08.782Z,9.44
2019-03-24T15:48:14.588Z,9.64
2019-03-24T15:51:19.766Z,9.68
2019-03-24T15:54:24.392Z,9.20
2019-03-24T15:57:31.306Z,9.57
2019-03-24T16:00:42.996Z,9.62
2019-03-24T16:03:48.257Z,9.47
2019-03-24T16:06:52.939Z,9.75
2019-03-24T16:09:58.264Z,9.70
2019-03-24T16:13:04.147Z,9.14
2019-03-24T16:16:09.521Z,9.29
2019-03-24T16:19:16.475Z,9.10
2019-03-24T16:22:22.276Z,9.01
2019-03-24T16:25:28.648Z,9.17
2019-03-24T16:28:34.898Z,8.89
2019-03-24T16:31:39.643Z,8.47
2019-03-24T16:34:44.443Z,8.47
2019-03-24T16:37:51.569Z,8.26
2019-03-24T16:40:56.439Z,8.30
2019-03-24T16:44:01.289Z,8.55
2019-03-24T16:47:06.366Z,8.42
2019-03-24T16:50:12.356Z,8.20
2019-03-24T16:53:17.381Z,8.01
2019-03-24T16:56:22.724Z,8.16
2019-03-24T16:59:28.585Z,8.14
2019-03-24T17:02:33.767Z,8.14
2019-03-24T17:05:37.667Z,7.93
2019-03-24T17:08:43.603Z,7.55
2019-03-24T17:11:49.343Z,7.39
2019-03-24T17:14:54.610Z,7.24
2019-03-24T17:17:59.361Z,6.96
2019-03-24T17:21:04.426Z,6.78
2019-03-24T17:24:10.558Z,6.57
2019-03-24T17:27:18.321Z,6.37
2019-03-24T17:30:23.623Z,6.11
2019-03-24T17:33:28.359Z,5.92
2019-03-24T17:36:33.535Z,5.81
2019-03-24T17:39:38.767Z,5.60
2019-03-24T17:42:44.050Z,5.29
2019-03-24T17:45:49.275Z,5.05
2019-03-24T17:48:55.290Z,4.95
2019-03-24T17:52:01.639Z,4.84
2019-03-24T17:55:08.423Z,4.69
2019-03-24T17:58:13.498Z,4.54
2019-03-24T18:01:18.630Z,4.48
2019-03-24T18:04:25.308Z,4.18
2019-03-24T18:07:30.242Z,4.03
2019-03-24T18:10:35.275Z,3.96
2019-03-24T18:13:40.676Z,3.87
2019-03-24T18:16:46.439Z,3.70
2019-03-24T18:19:52.452Z,3.58
2019-03-24T18:23:02.029Z,3.42
2019-03-24T18:26:07.434Z,3.27
2019-03-24T18:29:13.275Z,3.15
2019-03-24T18:32:18.444Z,3.04
2019-03-24T18:35:23.426Z,2.84
2019-03-24T18:38:28.264Z,2.76
2019-03-24T18:41:34.380Z,2.60
2019-03-24T18:44:39.307Z,2.50
2019-03-24T18:47:44.223Z,2.25
2019-03-24T18:50:49.436Z,2.25
2019-03-24T18:53:54.263Z,2.08
2019-03-24T18:56:59.055Z,2.05
2019-03-24T19:00:05.400Z,1.88
2019-03-24T19:03:10.603Z,1.88
2019-03-24T19:06:17.663Z,1.80
2019-03-24T19:09:24.503Z,1.70
2019-03-24T19:12:31.378Z,1.61
2019-03-24T19:15:37.686Z,1.53
2019-03-24T19:18:42.923Z,1.51
2019-03-24T19:21:47.890Z,1.42
2019-03-24T19:24:52.978Z,1.37
2019-03-24T19:27:58.277Z,1.37
2019-03-24T19:31:03.482Z,1.51
2019-03-24T19:34:08.568Z,1.47
2019-03-24T19:37:13.770Z,1.34
2019-03-24T19:40:27.751Z,1.30
2019-03-24T19:43:34.512Z,1.28
2019-03-24T19:46:41.436Z,1.23
2019-03-24T19:49:48.238Z,1.24
2019-03-24T19:52:53.283Z,1.19
2019-03-24T19:55:58.295Z,1.19
2019-03-24T19:59:05.252Z,1.18
2019-03-24T20:02:11.549Z,1.10
2019-03-24T20:05:16.581Z,1.06
2019-03-24T20:08:21.259Z,0.99
2019-03-24T20:11:26.272Z,0.92
2019-03-24T20:14:31.308Z,0.82
2019-03-24T20:17:36.522Z,0.79
2019-03-24T20:20:41.617Z,0.70
2019-03-24T20:23:46.678Z,0.61
2019-03-24T20:26:51.767Z,0.55
2019-03-24T20:29:55.868Z,0.50
2019-03-24T20:33:00.980Z,0.29
2019-03-24T20:36:06.284Z,0.29
2019-03-24T20:39:11.566Z,0.38
2019-03-24T20:42:16.314Z,0.38
2019-03-24T20:45:22.274Z,0.40
2019-03-24T20:48:27.260Z,0.37
2019-03-24T20:51:32.279Z,0.30
2019-03-24T20:54:37.308Z,0.28
2019-03-24T20:57:42.329Z,0.20
2019-03-24T21:00:50.010Z,0.12
2019-03-24T21:03:54.712Z,0.09
2019-03-24T21:06:59.017Z,0.04
2019-03-24T21:10:05.317Z,-0.03
2019-03-24T21:13:10.465Z,-0.16
2019-03-24T21:16:15.974Z,-0.11
2019-03-24T21:19:20.936Z,-0.21
2019-03-24T21:22:27.574Z,-0.21
2019-03-24T21:25:32.462Z,-0.23
2019-03-24T21:28:37.268Z,-0.20
2019-03-24T21:31:42.029Z,-0.20
2019-03-24T21:34:46.973Z,-0.23
2019-03-24T21:37:52.077Z,-0.26
2019-03-24T21:40:57.734Z,-0.33
2019-03-24T21:44:01.836Z,-0.32
2019-03-24T21:47:06.889Z,-0.34
2019-03-24T21:50:13.061Z,-0.38
2019-03-24T21:53:18.332Z,-0.38
2019-03-24T21:56:23.267Z,-0.43
2019-03-24T21:59:28.976Z,-0.44
2019-03-24T22:02:34.714Z,-0.35
2019-03-24T22:05:39.804Z,-0.23
2019-03-24T22:08:45.018Z,-0.49
2019-03-24T22:11:51.002Z,-0.49
2019-03-24T22:14:55.964Z,-0.51
2019-03-24T22:18:00.795Z,-0.54
2019-03-24T22:21:05.572Z,-0.71
2019-03-24T22:24:11.009Z,-0.71
2019-03-24T22:27:16.476Z,-0.69
2019-03-24T22:30:21.662Z,-0.68
2019-03-24T22:33:26.454Z,-0.65
2019-03-24T22:36:31.340Z,-0.66
2019-03-24T22:39:36.467Z,-0.60
2019-03-24T22:42:42.294Z,-0.56
2019-03-24T22:45:47.463Z,-0.58
2019-03-24T22:48:52.490Z,-0.53
2019-03-24T22:52:06.775Z,-0.43
2019-03-24T22:55:06.640Z,-0.53
2019-03-24T22:58:11.895Z,-0.57
2019-03-24T23:01:18.074Z,-0.66
2019-03-24T23:04:23.238Z,-0.66
2019-03-24T23:07:28.295Z,-0.64
2019-03-24T23:10:33.333Z,-0.68
2019-03-24T23:13:38.749Z,-0.65
2019-03-24T23:16:43.138Z,-0.66
2019-03-24T23:19:48.341Z,-0.68
2019-03-24T23:22:53.095Z,-0.68
2019-03-24T23:25:57.715Z,-0.77
2019-03-24T23:29:01.672Z,-0.82
2019-03-24T23:32:06.332Z,-0.86
2019-03-24T23:35:11.393Z,-0.88
2019-03-24T23:38:16.696Z,-0.93
2019-03-24T23:41:21.019Z,-0.99
2019-03-24T23:44:25.963Z,-1.05
2019-03-24T23:47:30.646Z,-1.12
2019-03-24T23:50:35.398Z,-1.16
2019-03-24T23:53:40.256Z,-1.21
2019-03-24T23:56:45.327Z,-1.28
2019-03-24T23:59:50.319Z,-1.27
